KPLD

Details ICAO KPLD
Name PORTLAND MUNI
Region United States
Timezone America/Indiana/Indianapolis (UTC-4.0)
Plans Departing 2
Arriving 3
Stats Elevation 926 ft / 282 m (AMSL)
Location 40.450251° -84.990746°
Runways 2
Magnetic Variation 5.754° W
Sunrise 2018-05-22 10:19:07 UTC / 2018-05-22 06:19:07 Local
Sunset 2018-05-23 00:57:02 UTC / 2018-05-22 20:57:02 Local
Advertisement - Login to hide

Runways

ID Width Length Bearing (true) Bearing (mag) Surface Threshold Offset Overrun Length
09 75 ft / 23 m 3,993 ft / 1,217 m 88.60° 94.35° Asphalt 0 ft / 0 m 0 ft / 0 m
18 150 ft / 46 m 1,825 ft / 556 m 180.00° 185.75° Grass 100 ft / 30 m 0 ft / 0 m
27 75 ft / 23 m 3,993 ft / 1,217 m 268.61° 274.36° Asphalt 0 ft / 0 m 0 ft / 0 m
36 150 ft / 46 m 1,825 ft / 556 m 0.00° 5.75° Grass 300 ft / 91 m 0 ft / 0 m

Map

Weather


0- 5 10 15 20 25 30 35+ Temperature / ° C

Clouds and Precipitation
Forecast for 2018-05-23 06:00 UTC. Updated 30 minutes ago

Ground ~20,000 ft ~40,000 ft Winds

METAR

KPLD 230335Z AUTO 00000KT 10SM CLR 16/15 A3006 RMK AO2

TAF

Not found

Frequencies

Recorded 126.67 MHz AWOS 3
Approach 127.20 MHz FORT WAYNE APP/DEP
Unicom 122.80 MHz CTAF/UNICOM
Approach 132.15 MHz FORT WAYNE APP/DEP
Warning: Do not use this data for real-world aviation or navigation. No guarantee of current accuracy is given.